createdAt,value
2022-11-24T00:00:12.534Z,100.00
2022-11-24T00:01:21.381Z,100.00
2022-11-24T00:02:24.140Z,100.00
2022-11-24T00:03:27.161Z,100.00
2022-11-24T00:04:29.819Z,100.00
2022-11-24T00:05:38.661Z,100.00
2022-11-24T00:06:41.535Z,100.00
2022-11-24T00:07:44.760Z,100.00
2022-11-24T00:08:48.019Z,100.00
2022-11-24T00:09:50.734Z,100.00
2022-11-24T00:10:53.420Z,100.00
2022-11-24T00:11:56.214Z,100.00
2022-11-24T00:12:58.941Z,100.00
2022-11-24T00:14:02.264Z,100.00
2022-11-24T00:15:05.292Z,100.00
2022-11-24T00:16:22.511Z,100.00
2022-11-24T00:17:25.347Z,100.00
2022-11-24T00:18:28.087Z,100.00
2022-11-24T00:19:30.954Z,100.00
2022-11-24T00:20:33.736Z,100.00
2022-11-24T00:21:37.624Z,100.00
2022-11-24T00:22:40.284Z,100.00
2022-11-24T00:23:43.628Z,100.00
2022-11-24T00:24:46.371Z,100.00
2022-11-24T00:25:49.030Z,100.00
2022-11-24T00:26:51.934Z,100.00
2022-11-24T00:27:54.701Z,100.00
2022-11-24T00:29:01.472Z,100.00
2022-11-24T00:30:04.780Z,100.00
2022-11-24T00:31:21.260Z,100.00
2022-11-24T00:32:24.074Z,100.00
2022-11-24T00:33:26.830Z,100.00
2022-11-24T00:34:29.643Z,100.00
2022-11-24T00:35:32.436Z,100.00
2022-11-24T00:36:36.234Z,100.00
2022-11-24T00:37:39.035Z,100.00
2022-11-24T00:38:44.089Z,100.00
2022-11-24T00:39:47.103Z,100.00
2022-11-24T00:40:49.954Z,100.00
2022-11-24T00:41:52.692Z,100.00
2022-11-24T00:42:55.444Z,100.00
2022-11-24T00:43:59.435Z,100.00
2022-11-24T00:45:12.902Z,100.00
2022-11-24T00:46:16.491Z,100.00
2022-11-24T00:47:19.155Z,100.00
2022-11-24T00:48:22.394Z,100.00
2022-11-24T00:49:25.072Z,100.00
2022-11-24T00:50:28.348Z,100.00
2022-11-24T00:51:31.767Z,100.00
2022-11-24T00:52:34.591Z,100.00
2022-11-24T00:53:41.161Z,100.00
2022-11-24T00:54:44.051Z,100.00
2022-11-24T00:55:50.208Z,100.00
2022-11-24T00:56:53.049Z,100.00
2022-11-24T00:57:55.904Z,100.00
2022-11-24T00:58:59.178Z,100.00
2022-11-24T01:00:02.106Z,100.00
2022-11-24T01:01:10.885Z,100.00
2022-11-24T01:02:13.895Z,100.00
2022-11-24T01:03:17.637Z,100.00
2022-11-24T01:04:20.481Z,100.00
2022-11-24T01:05:23.164Z,100.00
2022-11-24T01:06:26.754Z,100.00
2022-11-24T01:07:29.443Z,100.00
2022-11-24T01:08:36.625Z,100.00
2022-11-24T01:09:39.697Z,100.00
2022-11-24T01:10:42.657Z,100.00
2022-11-24T01:12:04.387Z,100.00
2022-11-24T01:13:07.459Z,100.00
2022-11-24T01:14:10.391Z,100.00
2022-11-24T01:15:13.062Z,100.00
2022-11-24T01:16:30.494Z,100.00
2022-11-24T01:17:33.190Z,100.00
2022-11-24T01:18:36.334Z,100.00
2022-11-24T01:19:38.923Z,100.00
2022-11-24T01:20:41.867Z,100.00
2022-11-24T01:21:44.782Z,100.00
2022-11-24T01:22:49.092Z,100.00
2022-11-24T01:23:51.838Z,100.00
2022-11-24T01:24:54.549Z,100.00
2022-11-24T01:25:57.257Z,100.00
2022-11-24T01:26:59.889Z,100.00
2022-11-24T01:28:02.656Z,100.00
2022-11-24T01:29:05.787Z,100.00
2022-11-24T01:30:09.211Z,100.00
2022-11-24T01:31:12.113Z,100.00
2022-11-24T01:32:14.855Z,100.00
2022-11-24T01:33:17.544Z,100.00
2022-11-24T01:34:20.286Z,100.00
2022-11-24T01:35:22.931Z,100.00
2022-11-24T01:36:26.292Z,100.00
2022-11-24T01:37:29.128Z,100.00
2022-11-24T01:38:32.326Z,100.00
2022-11-24T01:39:35.023Z,100.00
2022-11-24T01:40:37.710Z,100.00
2022-11-24T01:41:40.679Z,100.00
2022-11-24T01:42:48.413Z,100.00
2022-11-24T01:43:52.490Z,100.00
2022-11-24T01:45:35.315Z,100.00
2022-11-24T01:46:47.653Z,100.00
2022-11-24T01:47:50.330Z,100.00
2022-11-24T01:48:57.795Z,100.00
2022-11-24T01:50:03.347Z,100.00
2022-11-24T01:51:33.171Z,100.00
2022-11-24T01:52:43.593Z,100.00
2022-11-24T01:54:01.400Z,100.00
2022-11-24T01:55:12.116Z,100.00
2022-11-24T01:56:15.387Z,100.00
2022-11-24T01:57:24.748Z,100.00
2022-11-24T01:58:32.707Z,100.00
2022-11-24T01:59:35.695Z,100.00
2022-11-24T02:00:41.533Z,100.00
2022-11-24T02:01:44.473Z,100.00
2022-11-24T02:02:47.193Z,100.00
2022-11-24T02:03:50.866Z,100.00
2022-11-24T02:04:54.690Z,100.00
2022-11-24T02:06:00.125Z,100.00
2022-11-24T02:07:06.232Z,100.00
2022-11-24T02:08:26.006Z,100.00
2022-11-24T02:09:35.362Z,100.00
2022-11-24T02:10:38.957Z,100.00
2022-11-24T02:11:43.103Z,100.00
2022-11-24T02:12:48.009Z,100.00
2022-11-24T02:13:53.523Z,100.00
2022-11-24T02:14:56.896Z,100.00
2022-11-24T02:16:00.257Z,100.00
2022-11-24T02:17:03.539Z,100.00
2022-11-24T02:18:06.571Z,100.00
2022-11-24T02:19:24.769Z,100.00
2022-11-24T02:20:27.773Z,100.00
2022-11-24T02:21:30.583Z,100.00
2022-11-24T02:23:21.608Z,100.00
2022-11-24T02:24:39.891Z,100.00
2022-11-24T02:25:56.446Z,100.00
2022-11-24T02:26:59.488Z,100.00
2022-11-24T02:28:07.340Z,100.00
2022-11-24T02:29:12.009Z,100.00
2022-11-24T02:30:15.015Z,100.00
2022-11-24T02:31:18.380Z,100.00
2022-11-24T02:32:21.775Z,100.00
2022-11-24T02:33:25.574Z,100.00
2022-11-24T02:34:28.492Z,100.00
2022-11-24T02:35:32.154Z,100.00
2022-11-24T02:36:35.095Z,100.00
2022-11-24T02:37:38.300Z,100.00
2022-11-24T02:38:41.173Z,100.00
2022-11-24T02:39:43.866Z,100.00
2022-11-24T02:40:50.205Z,100.00
2022-11-24T02:41:59.448Z,100.00
2022-11-24T02:43:09.450Z,100.00
2022-11-24T02:44:15.812Z,100.00
2022-11-24T02:45:18.899Z,100.00
2022-11-24T02:46:21.979Z,100.00
2022-11-24T02:47:27.183Z,100.00
2022-11-24T02:48:30.719Z,100.00
2022-11-24T02:49:34.045Z,100.00
2022-11-24T02:50:37.117Z,100.00
2022-11-24T02:51:39.855Z,100.00
2022-11-24T02:52:42.606Z,100.00
2022-11-24T02:53:45.428Z,100.00
2022-11-24T02:54:48.107Z,100.00
2022-11-24T02:55:50.749Z,100.00
2022-11-24T02:56:53.449Z,100.00
2022-11-24T02:57:56.356Z,100.00
2022-11-24T02:58:59.090Z,100.00
2022-11-24T03:00:01.923Z,100.00
2022-11-24T03:01:04.845Z,100.00
2022-11-24T03:02:07.494Z,100.00
2022-11-24T03:03:10.630Z,100.00
2022-11-24T03:04:13.376Z,100.00
2022-11-24T03:05:16.144Z,100.00
2022-11-24T03:06:18.733Z,100.00
2022-11-24T03:07:23.164Z,100.00
2022-11-24T03:08:25.952Z,100.00
2022-11-24T03:09:28.825Z,100.00
2022-11-24T03:10:31.582Z,100.00
2022-11-24T03:11:34.452Z,100.00
2022-11-24T03:12:37.413Z,100.00
2022-11-24T03:13:40.058Z,100.00
2022-11-24T03:14:42.772Z,100.00
2022-11-24T03:15:45.523Z,100.00
2022-11-24T03:16:48.331Z,100.00
2022-11-24T03:17:51.213Z,100.00
2022-11-24T03:18:54.090Z,100.00
2022-11-24T03:20:02.944Z,100.00
2022-11-24T03:21:07.381Z,100.00
2022-11-24T03:22:10.210Z,100.00
2022-11-24T03:23:12.852Z,100.00
2022-11-24T03:24:15.572Z,100.00
2022-11-24T03:25:18.860Z,100.00
2022-11-24T03:26:23.477Z,100.00
2022-11-24T03:27:26.457Z,100.00
2022-11-24T03:28:29.451Z,100.00
2022-11-24T03:29:32.213Z,100.00
2022-11-24T03:30:35.323Z,100.00
2022-11-24T03:31:38.187Z,100.00
2022-11-24T03:32:45.376Z,100.00
2022-11-24T03:33:48.041Z,100.00
2022-11-24T03:34:50.802Z,100.00
2022-11-24T03:35:53.414Z,100.00
2022-11-24T03:36:56.023Z,100.00
2022-11-24T03:37:58.694Z,100.00
2022-11-24T03:39:01.610Z,100.00
2022-11-24T03:40:04.852Z,100.00
2022-11-24T03:41:07.732Z,100.00
2022-11-24T03:42:10.434Z,100.00
2022-11-24T03:43:13.328Z,100.00
2022-11-24T03:44:15.997Z,100.00
2022-11-24T03:46:42.415Z,100.00
2022-11-24T03:47:45.171Z,100.00
2022-11-24T03:48:47.984Z,100.00
2022-11-24T03:49:50.759Z,100.00
2022-11-24T03:50:59.217Z,100.00
2022-11-24T03:52:07.651Z,100.00
2022-11-24T03:53:11.075Z,100.00
2022-11-24T03:54:13.829Z,100.00
2022-11-24T03:55:16.617Z,100.00
2022-11-24T03:56:19.354Z,100.00
2022-11-24T03:57:22.149Z,100.00
2022-11-24T03:58:25.796Z,100.00
2022-11-24T03:59:28.384Z,100.00
2022-11-24T04:00:31.923Z,100.00
2022-11-24T04:01:35.121Z,100.00
2022-11-24T04:02:38.457Z,100.00
2022-11-24T04:03:41.169Z,100.00
2022-11-24T04:04:48.472Z,100.00
2022-11-24T04:05:52.426Z,100.00
2022-11-24T04:06:55.121Z,100.00
2022-11-24T04:07:58.101Z,100.00
2022-11-24T04:09:01.177Z,100.00
2022-11-24T04:10:04.500Z,100.00
2022-11-24T04:11:07.509Z,100.00
2022-11-24T04:12:29.376Z,100.00
2022-11-24T04:13:32.131Z,100.00
2022-11-24T04:14:35.117Z,100.00
2022-11-24T04:15:40.644Z,100.00
2022-11-24T04:16:43.441Z,100.00
2022-11-24T04:17:47.257Z,100.00
2022-11-24T04:18:53.081Z,100.00
2022-11-24T04:19:55.838Z,100.00
2022-11-24T04:20:58.538Z,100.00
2022-11-24T04:22:01.134Z,100.00
2022-11-24T04:23:04.752Z,100.00
2022-11-24T04:24:08.110Z,100.00
2022-11-24T04:25:11.558Z,100.00
2022-11-24T04:26:14.539Z,100.00
2022-11-24T04:27:17.385Z,100.00
2022-11-24T04:28:20.335Z,100.00
2022-11-24T04:29:23.397Z,100.00
2022-11-24T04:30:28.168Z,100.00
2022-11-24T04:31:30.937Z,100.00
2022-11-24T04:32:33.676Z,100.00
2022-11-24T04:33:36.454Z,100.00
2022-11-24T04:34:39.131Z,100.00
2022-11-24T04:35:41.971Z,100.00
2022-11-24T04:36:44.676Z,100.00
2022-11-24T04:37:47.607Z,100.00
2022-11-24T04:39:19.500Z,100.00
2022-11-24T04:40:16.257Z,100.00
2022-11-24T04:41:19.086Z,100.00
2022-11-24T04:42:21.973Z,100.00
2022-11-24T04:43:24.819Z,100.00
2022-11-24T04:44:27.549Z,100.00
2022-11-24T04:45:30.491Z,100.00
2022-11-24T04:46:33.236Z,100.00
2022-11-24T04:47:36.204Z,100.00
2022-11-24T04:48:42.210Z,100.00
2022-11-24T04:49:47.202Z,100.00
2022-11-24T04:50:50.079Z,100.00
2022-11-24T04:51:52.933Z,100.00
2022-11-24T04:52:55.939Z,100.00
2022-11-24T04:53:58.593Z,100.00
2022-11-24T04:55:01.615Z,100.00
2022-11-24T04:56:06.495Z,100.00
2022-11-24T04:57:16.841Z,100.00
2022-11-24T04:58:20.253Z,100.00
2022-11-24T04:59:23.025Z,100.00
2022-11-24T05:00:25.777Z,100.00
2022-11-24T05:01:29.271Z,100.00
2022-11-24T05:02:31.959Z,99.83
2022-11-24T05:03:36.222Z,98.67
2022-11-24T05:04:39.271Z,98.58
2022-11-24T05:05:41.890Z,98.74
2022-11-24T05:06:44.835Z,98.77
2022-11-24T05:07:47.698Z,98.93
2022-11-24T05:08:52.328Z,98.98
2022-11-24T05:10:13.981Z,99.21
2022-11-24T05:11:16.961Z,99.51
2022-11-24T05:12:19.700Z,98.83
2022-11-24T05:13:22.453Z,98.46
2022-11-24T05:14:25.361Z,98.39
2022-11-24T05:15:28.956Z,98.71
2022-11-24T05:16:32.235Z,99.05
2022-11-24T05:17:37.956Z,99.39
2022-11-24T05:18:40.719Z,99.48
2022-11-24T05:19:43.422Z,98.87
2022-11-24T05:20:46.574Z,98.42
2022-11-24T05:21:49.331Z,98.00
2022-11-24T05:22:52.065Z,98.01
2022-11-24T05:23:54.749Z,98.16
2022-11-24T05:24:58.241Z,98.50
2022-11-24T05:26:01.743Z,98.85
2022-11-24T05:27:04.534Z,98.75
2022-11-24T05:28:11.832Z,98.30
2022-11-24T05:29:14.639Z,98.45
2022-11-24T05:30:17.647Z,98.65
2022-11-24T05:31:23.912Z,98.45
2022-11-24T05:32:26.781Z,98.48
2022-11-24T05:33:30.516Z,98.70
2022-11-24T05:34:33.813Z,98.51
2022-11-24T05:35:36.894Z,98.79
2022-11-24T05:36:56.454Z,99.18
2022-11-24T05:37:59.439Z,99.52
2022-11-24T05:39:02.275Z,99.81
2022-11-24T05:40:07.087Z,99.76
2022-11-24T05:41:09.813Z,99.79
2022-11-24T05:42:31.661Z,99.92
2022-11-24T05:43:35.122Z,99.94
2022-11-24T05:44:37.862Z,100.00
2022-11-24T05:45:40.660Z,100.00
2022-11-24T05:46:43.641Z,100.00
2022-11-24T05:47:47.446Z,100.00
2022-11-24T05:48:50.247Z,100.00
2022-11-24T05:49:53.361Z,100.00
2022-11-24T05:50:57.700Z,100.00
2022-11-24T05:52:00.586Z,100.00
2022-11-24T05:53:13.978Z,99.99
2022-11-24T05:54:16.776Z,99.91
2022-11-24T05:55:19.760Z,99.65
2022-11-24T05:56:22.876Z,99.74
2022-11-24T05:57:25.701Z,99.83
2022-11-24T05:58:31.334Z,99.36
2022-11-24T05:59:34.260Z,99.53
2022-11-24T06:00:37.754Z,99.80
2022-11-24T06:01:40.704Z,99.66
2022-11-24T06:02:43.751Z,98.92
2022-11-24T06:03:46.625Z,98.03
2022-11-24T06:04:49.422Z,97.90
2022-11-24T06:05:52.209Z,97.78
2022-11-24T06:06:55.119Z,97.93
2022-11-24T06:07:59.409Z,98.19
2022-11-24T06:09:02.584Z,98.44
2022-11-24T06:10:05.866Z,98.75
2022-11-24T06:11:18.551Z,98.87
2022-11-24T06:12:21.573Z,98.87
2022-11-24T06:13:24.483Z,99.11
2022-11-24T06:14:27.525Z,99.12
2022-11-24T06:15:30.246Z,99.26
2022-11-24T06:16:33.526Z,99.24
2022-11-24T06:17:36.404Z,99.48
2022-11-24T06:18:39.655Z,99.31
2022-11-24T06:19:45.819Z,99.02
2022-11-24T06:21:09.757Z,98.98
2022-11-24T06:22:12.936Z,99.36
2022-11-24T06:23:20.122Z,99.67
2022-11-24T06:24:22.888Z,99.54
2022-11-24T06:25:26.528Z,99.78
2022-11-24T06:26:29.434Z,99.85
2022-11-24T06:27:32.591Z,99.88
2022-11-24T06:28:36.823Z,100.00
2022-11-24T06:29:39.688Z,100.00
2022-11-24T06:30:42.465Z,100.00
2022-11-24T06:31:45.292Z,100.00
2022-11-24T06:32:51.698Z,100.00
2022-11-24T06:33:54.667Z,100.00
2022-11-24T06:34:57.817Z,99.64
2022-11-24T06:36:07.390Z,99.69
2022-11-24T06:37:10.445Z,99.82
2022-11-24T06:38:13.340Z,99.90
2022-11-24T06:39:16.139Z,100.00
2022-11-24T06:40:19.088Z,100.00
2022-11-24T06:41:21.877Z,100.00
2022-11-24T06:42:24.814Z,99.88
2022-11-24T06:43:29.563Z,99.73
2022-11-24T06:44:32.785Z,99.78
2022-11-24T06:45:36.195Z,99.79
2022-11-24T06:46:39.600Z,99.43
2022-11-24T06:47:42.396Z,99.02
2022-11-24T06:48:45.407Z,98.77
2022-11-24T06:49:48.146Z,98.23
2022-11-24T06:50:52.028Z,97.63
2022-11-24T06:51:55.407Z,97.15
2022-11-24T06:52:58.320Z,96.86
2022-11-24T06:54:01.880Z,97.01
2022-11-24T06:55:05.076Z,97.12
2022-11-24T06:56:16.150Z,97.13
2022-11-24T06:57:19.605Z,97.14
2022-11-24T06:58:22.853Z,97.34
2022-11-24T06:59:26.770Z,97.33
2022-11-24T07:00:32.274Z,97.33
2022-11-24T07:01:35.022Z,97.36
2022-11-24T07:02:42.491Z,97.30
2022-11-24T07:03:49.927Z,97.26
2022-11-24T07:04:52.712Z,97.45
2022-11-24T07:05:59.037Z,97.57
2022-11-24T07:07:03.190Z,97.51
2022-11-24T07:08:06.212Z,97.57
2022-11-24T07:09:15.869Z,97.72
2022-11-24T07:10:19.019Z,97.95
2022-11-24T07:11:24.425Z,98.04
2022-11-24T07:12:27.474Z,98.22
2022-11-24T07:13:30.244Z,98.11
2022-11-24T07:14:33.706Z,97.94
2022-11-24T07:15:36.878Z,98.06
2022-11-24T07:16:40.119Z,97.95
2022-11-24T07:17:42.909Z,97.66
2022-11-24T07:18:47.874Z,97.34
2022-11-24T07:19:50.613Z,97.04
2022-11-24T07:20:53.484Z,96.85
2022-11-24T07:21:56.732Z,96.96
2022-11-24T07:22:59.848Z,97.00
2022-11-24T07:24:02.627Z,97.15
2022-11-24T07:25:07.614Z,97.23
2022-11-24T07:26:12.536Z,97.01
2022-11-24T07:27:15.356Z,96.89
2022-11-24T07:28:18.288Z,96.69
2022-11-24T07:29:21.256Z,96.69
2022-11-24T07:30:24.736Z,97.03
2022-11-24T07:31:27.698Z,96.78
2022-11-24T07:32:30.946Z,96.62
2022-11-24T07:33:34.204Z,96.31
2022-11-24T07:34:37.242Z,96.32
2022-11-24T07:35:40.142Z,96.35
2022-11-24T07:36:43.255Z,95.73
2022-11-24T07:37:45.919Z,95.26
2022-11-24T07:38:49.351Z,95.26
2022-11-24T07:39:52.130Z,95.50
2022-11-24T07:40:54.937Z,95.33
2022-11-24T07:42:00.570Z,95.28
2022-11-24T07:43:03.692Z,95.25
2022-11-24T07:44:06.681Z,95.71
2022-11-24T07:45:09.934Z,95.69
2022-11-24T07:46:15.874Z,95.27
2022-11-24T07:47:18.715Z,94.83
2022-11-24T07:48:23.287Z,94.59
2022-11-24T07:49:26.014Z,94.80
2022-11-24T07:50:29.068Z,94.83
2022-11-24T07:51:31.862Z,94.91
2022-11-24T07:52:34.807Z,94.95
2022-11-24T07:53:38.583Z,94.99
2022-11-24T07:54:41.398Z,95.01
2022-11-24T07:55:44.298Z,95.20
2022-11-24T07:56:50.156Z,94.63
2022-11-24T07:57:52.916Z,94.29
2022-11-24T07:58:55.718Z,94.33
2022-11-24T07:59:58.510Z,94.49
2022-11-24T08:01:16.572Z,93.87
2022-11-24T08:02:19.854Z,93.84
2022-11-24T08:03:24.122Z,93.88
2022-11-24T08:04:27.351Z,94.12
2022-11-24T08:05:31.144Z,94.22
2022-11-24T08:06:39.734Z,94.34
2022-11-24T08:07:46.113Z,94.52
2022-11-24T08:08:49.166Z,94.77
2022-11-24T08:09:52.403Z,94.54
2022-11-24T08:10:55.172Z,94.47
2022-11-24T08:11:57.891Z,94.08
2022-11-24T08:13:01.956Z,94.38
2022-11-24T08:14:04.754Z,94.69
2022-11-24T08:15:11.985Z,94.14
2022-11-24T08:16:17.536Z,91.69
2022-11-24T08:17:20.649Z,91.57
2022-11-24T08:18:24.919Z,91.78
2022-11-24T08:19:27.805Z,92.09
2022-11-24T08:20:30.782Z,92.22
2022-11-24T08:21:33.612Z,92.61
2022-11-24T08:22:36.397Z,92.83
2022-11-24T08:23:39.587Z,93.02
2022-11-24T08:24:47.338Z,93.16
2022-11-24T08:25:56.988Z,92.47
2022-11-24T08:26:59.996Z,92.04
2022-11-24T08:28:04.640Z,91.81
2022-11-24T08:29:08.150Z,91.53
2022-11-24T08:30:14.953Z,91.81
2022-11-24T08:31:19.345Z,91.79
2022-11-24T08:32:23.955Z,92.12
2022-11-24T08:33:26.691Z,92.79
2022-11-24T08:34:29.698Z,92.57
2022-11-24T08:35:35.749Z,92.12
2022-11-24T08:36:38.457Z,92.56
2022-11-24T08:37:41.306Z,92.80
2022-11-24T08:38:45.977Z,92.67
2022-11-24T08:39:49.023Z,92.57
2022-11-24T08:40:51.816Z,92.45
2022-11-24T08:41:54.584Z,92.24
2022-11-24T08:42:59.261Z,92.27
2022-11-24T08:44:01.958Z,91.85
2022-11-24T08:45:20.004Z,91.98
2022-11-24T08:46:24.615Z,92.04
2022-11-24T08:47:27.383Z,92.33
2022-11-24T08:48:30.745Z,92.59
2022-11-24T08:49:33.489Z,90.09
2022-11-24T08:50:37.721Z,88.92
2022-11-24T08:51:41.119Z,89.94
2022-11-24T08:52:44.040Z,90.43
2022-11-24T08:53:46.995Z,90.84
2022-11-24T08:54:50.589Z,91.28
2022-11-24T08:55:53.432Z,91.37
2022-11-24T08:56:56.260Z,91.67
2022-11-24T08:57:59.057Z,91.95
2022-11-24T08:59:02.875Z,91.53
2022-11-24T09:00:06.512Z,90.76
2022-11-24T09:01:15.883Z,89.50
2022-11-24T09:02:19.432Z,89.60
2022-11-24T09:03:22.379Z,90.22
2022-11-24T09:04:25.098Z,90.54
2022-11-24T09:06:50.819Z,90.59
2022-11-24T09:07:53.826Z,90.75
2022-11-24T09:08:57.933Z,90.85
2022-11-24T09:10:00.893Z,90.92
2022-11-24T09:11:09.304Z,90.92
2022-11-24T09:12:14.606Z,91.49
2022-11-24T09:13:17.947Z,90.98
2022-11-24T09:14:20.898Z,90.31
2022-11-24T09:15:23.729Z,90.47
2022-11-24T09:16:29.162Z,91.20
2022-11-24T09:17:33.070Z,91.68
2022-11-24T09:18:36.468Z,89.60
2022-11-24T09:19:42.422Z,88.71
2022-11-24T09:20:45.508Z,89.22
2022-11-24T09:21:49.123Z,88.81
2022-11-24T09:22:52.019Z,88.71
2022-11-24T09:23:56.057Z,88.66
2022-11-24T09:24:58.823Z,89.42
2022-11-24T09:26:10.369Z,90.11
2022-11-24T09:27:16.748Z,89.91
2022-11-24T09:28:19.676Z,88.67
2022-11-24T09:29:22.525Z,86.62
2022-11-24T09:30:25.265Z,87.08
2022-11-24T09:31:31.437Z,87.54
2022-11-24T09:32:34.432Z,88.36
2022-11-24T09:33:37.861Z,88.40
2022-11-24T09:34:40.635Z,88.71
2022-11-24T09:35:43.423Z,87.91
2022-11-24T09:36:49.735Z,87.92
2022-11-24T09:37:52.618Z,87.09
2022-11-24T09:38:55.977Z,86.72
2022-11-24T09:39:58.668Z,87.39
2022-11-24T09:41:27.655Z,88.17
2022-11-24T09:42:46.994Z,85.71
2022-11-24T09:44:34.151Z,86.54
2022-11-24T09:46:07.686Z,87.79
2022-11-24T09:47:23.068Z,85.89
2022-11-24T09:48:44.649Z,86.67
2022-11-24T09:49:59.331Z,87.17
2022-11-24T09:51:04.624Z,87.47
2022-11-24T09:52:15.197Z,88.17
2022-11-24T09:53:44.882Z,88.51
2022-11-24T09:55:00.710Z,88.76
2022-11-24T09:56:14.862Z,88.60
2022-11-24T09:57:21.350Z,88.12
2022-11-24T09:58:53.900Z,88.59
2022-11-24T10:00:03.757Z,88.50
2022-11-24T10:01:22.120Z,87.57
2022-11-24T10:02:26.009Z,88.21
2022-11-24T10:03:43.655Z,88.80
2022-11-24T10:04:47.613Z,89.24
2022-11-24T10:05:51.714Z,89.52
2022-11-24T10:07:30.808Z,89.06
2022-11-24T10:08:51.916Z,88.55
2022-11-24T10:10:08.837Z,89.42
2022-11-24T10:11:16.950Z,89.67
2022-11-24T10:12:39.835Z,89.66
2022-11-24T10:14:19.764Z,89.59
2022-11-24T10:16:00.343Z,89.12
2022-11-24T10:17:23.677Z,86.87
2022-11-24T10:18:44.796Z,87.23
2022-11-24T10:20:06.744Z,88.12
2022-11-24T10:21:52.372Z,88.55
2022-11-24T10:23:38.398Z,89.00
2022-11-24T10:25:09.447Z,89.07
2022-11-24T10:26:33.406Z,89.19
2022-11-24T10:27:42.306Z,89.35
2022-11-24T10:28:55.703Z,89.01
2022-11-24T10:30:00.736Z,88.68
2022-11-24T10:31:23.684Z,89.47
2022-11-24T10:32:44.255Z,89.67
2022-11-24T10:33:47.995Z,89.60
2022-11-24T10:34:50.940Z,89.23
2022-11-24T10:36:04.458Z,89.07
2022-11-24T10:37:26.021Z,89.04
2022-11-24T10:39:07.815Z,88.48
2022-11-24T10:40:56.007Z,89.05
2022-11-24T10:42:23.635Z,89.32
2022-11-24T10:43:28.322Z,88.75
2022-11-24T10:44:34.257Z,88.16
2022-11-24T10:45:39.557Z,88.10
2022-11-24T10:46:42.874Z,88.19
2022-11-24T10:47:47.622Z,88.32
2022-11-24T10:48:53.935Z,88.70
2022-11-24T10:50:24.439Z,88.37
2022-11-24T10:51:49.160Z,87.75
2022-11-24T10:52:56.829Z,87.30
2022-11-24T10:54:21.170Z,86.67
2022-11-24T10:55:24.899Z,86.83
2022-11-24T10:56:27.931Z,87.12
2022-11-24T10:57:32.606Z,87.92
2022-11-24T10:58:38.686Z,88.68
2022-11-24T10:59:41.558Z,89.07
2022-11-24T11:00:44.424Z,88.70
2022-11-24T11:01:47.376Z,88.87
2022-11-24T11:02:58.531Z,89.26
2022-11-24T11:04:01.822Z,89.66
2022-11-24T11:06:09.353Z,89.72
2022-11-24T11:07:25.404Z,88.22
2022-11-24T11:08:30.647Z,88.84
2022-11-24T11:09:33.692Z,89.23
2022-11-24T11:10:36.789Z,89.40
2022-11-24T11:11:40.197Z,89.71
2022-11-24T11:12:44.594Z,89.18
2022-11-24T11:14:02.894Z,88.89
2022-11-24T11:15:25.961Z,87.53
2022-11-24T11:16:37.350Z,87.57
2022-11-24T11:17:44.680Z,87.59
2022-11-24T11:18:49.754Z,88.11
2022-11-24T11:20:01.438Z,88.30
2022-11-24T11:21:05.747Z,87.79
2022-11-24T11:22:11.496Z,88.37
2022-11-24T11:23:42.023Z,87.92
2022-11-24T11:24:47.489Z,86.82
2022-11-24T11:25:50.325Z,85.67
2022-11-24T11:27:03.964Z,84.97
2022-11-24T11:28:30.354Z,84.88
2022-11-24T11:34:20.528Z,83.55
2022-11-24T11:35:29.090Z,84.16
2022-11-24T11:36:33.387Z,85.26
2022-11-24T11:37:36.236Z,85.13
2022-11-24T11:38:40.793Z,85.10
2022-11-24T11:39:49.077Z,84.81
2022-11-24T11:40:52.775Z,84.96
2022-11-24T11:42:01.729Z,84.64
2022-11-24T11:43:31.848Z,84.56
2022-11-24T11:45:01.213Z,84.90
2022-11-24T11:46:10.063Z,85.49
2022-11-24T11:47:25.668Z,86.31
2022-11-24T11:48:43.707Z,86.05
2022-11-24T11:49:49.488Z,86.17
2022-11-24T11:51:27.474Z,86.40
2022-11-24T11:52:42.267Z,86.22
2022-11-24T11:54:12.496Z,86.14
2022-11-24T11:55:27.325Z,86.19
2022-11-24T11:56:49.500Z,86.47
2022-11-24T11:58:24.305Z,85.60
2022-11-24T11:59:51.245Z,85.94
2022-11-24T12:01:34.248Z,85.63
2022-11-24T12:02:46.114Z,84.83
2022-11-24T12:04:13.953Z,84.31
2022-11-24T12:05:30.809Z,84.82
2022-11-24T12:06:42.417Z,85.22
2022-11-24T12:07:54.042Z,84.42
2022-11-24T12:09:32.809Z,83.98
2022-11-24T12:10:39.473Z,84.21
2022-11-24T12:12:21.503Z,84.75
2022-11-24T12:13:38.849Z,85.15
2022-11-24T12:15:10.796Z,85.16
2022-11-24T12:16:48.551Z,85.30
2022-11-24T12:18:40.232Z,85.71
2022-11-24T12:20:01.398Z,85.48
2022-11-24T12:21:39.519Z,85.67
2022-11-24T12:23:03.133Z,85.89
2022-11-24T12:24:32.572Z,85.68
2022-11-24T12:25:42.170Z,86.24
2022-11-24T12:26:54.174Z,86.19
2022-11-24T12:28:30.321Z,85.29
2022-11-24T12:29:53.587Z,85.65
2022-11-24T12:31:07.225Z,85.82
2022-11-24T12:32:39.160Z,86.01
2022-11-24T12:34:00.826Z,86.21
2022-11-24T12:35:09.778Z,85.68
2022-11-24T12:36:45.816Z,85.92
2022-11-24T12:38:22.712Z,84.99
2022-11-24T12:39:34.905Z,84.59
2022-11-24T12:41:25.604Z,85.66
2022-11-24T12:43:02.810Z,85.94
2022-11-24T12:44:21.086Z,86.25
2022-11-24T12:45:42.650Z,85.90
2022-11-24T12:47:03.957Z,85.66
2022-11-24T12:48:36.537Z,85.41
2022-11-24T12:50:10.760Z,85.21
2022-11-24T12:51:24.620Z,84.94
2022-11-24T12:52:36.299Z,84.50
2022-11-24T12:53:39.330Z,85.30
2022-11-24T12:54:42.119Z,85.44
2022-11-24T12:55:46.411Z,85.21
2022-11-24T12:57:05.910Z,85.57
2022-11-24T12:58:32.195Z,86.00
2022-11-24T12:59:59.710Z,86.67
2022-11-24T13:01:25.527Z,86.95
2022-11-24T13:02:47.672Z,86.57
2022-11-24T13:04:28.638Z,86.67
2022-11-24T13:05:36.747Z,85.62
2022-11-24T13:07:00.841Z,85.93
2022-11-24T13:08:05.588Z,85.54
2022-11-24T13:09:10.677Z,85.88
2022-11-24T13:10:58.558Z,85.82
2022-11-24T13:11:55.824Z,86.15
2022-11-24T13:13:13.237Z,86.86
2022-11-24T13:14:34.683Z,86.74
2022-11-24T13:17:36.310Z,87.29
2022-11-24T13:18:57.685Z,87.25
2022-11-24T13:20:21.770Z,87.04
2022-11-24T13:21:52.026Z,87.36
2022-11-24T13:23:03.620Z,87.06
2022-11-24T13:24:19.343Z,87.28
2022-11-24T13:25:29.760Z,86.90
2022-11-24T13:26:41.506Z,87.36
2022-11-24T13:27:48.384Z,86.93
2022-11-24T13:29:12.978Z,86.45
2022-11-24T13:30:33.914Z,85.57
2022-11-24T13:31:36.964Z,85.70
2022-11-24T13:32:39.916Z,85.35
2022-11-24T13:33:43.052Z,85.38
2022-11-24T13:34:46.036Z,85.15
2022-11-24T13:36:08.112Z,85.19
2022-11-24T13:37:32.056Z,85.24
2022-11-24T13:38:47.049Z,85.48
2022-11-24T13:39:53.382Z,85.58
2022-11-24T13:41:13.506Z,86.05
2022-11-24T13:42:43.972Z,86.56
2022-11-24T13:44:15.570Z,86.58
2022-11-24T13:45:40.356Z,86.87
2022-11-24T13:47:01.738Z,86.61
2022-11-24T13:48:21.693Z,85.97
2022-11-24T13:49:37.340Z,86.00
2022-11-24T13:51:09.133Z,85.74
2022-11-24T13:52:39.809Z,86.32
2022-11-24T13:53:50.746Z,86.18
2022-11-24T13:54:53.581Z,85.73
2022-11-24T13:56:06.077Z,85.78
2022-11-24T13:57:39.514Z,85.69
2022-11-24T13:58:44.979Z,85.89
2022-11-24T13:59:50.996Z,86.53
2022-11-24T14:01:07.149Z,86.99
2022-11-24T14:02:24.229Z,87.27
2022-11-24T14:03:31.728Z,86.73
2022-11-24T14:04:39.713Z,86.94
2022-11-24T14:05:49.305Z,87.30
2022-11-24T14:06:52.071Z,87.50
2022-11-24T14:07:55.058Z,87.61
2022-11-24T14:09:06.955Z,87.41
2022-11-24T14:10:23.069Z,88.01
2022-11-24T14:11:28.842Z,88.13
2022-11-24T14:12:34.025Z,88.14
2022-11-24T14:13:37.040Z,88.12
2022-11-24T14:14:40.628Z,87.58
2022-11-24T14:15:43.703Z,87.82
2022-11-24T14:16:46.763Z,87.94
2022-11-24T14:17:49.686Z,88.09
2022-11-24T14:18:52.703Z,87.93
2022-11-24T14:19:57.340Z,87.25
2022-11-24T14:21:16.446Z,87.36
2022-11-24T14:22:27.057Z,87.74
2022-11-24T14:23:29.908Z,87.85
2022-11-24T14:24:38.245Z,87.91
2022-11-24T14:25:49.674Z,87.56
2022-11-24T14:26:52.990Z,86.92
2022-11-24T14:27:56.559Z,87.13
2022-11-24T14:29:16.911Z,87.38
2022-11-24T14:30:23.275Z,87.12
2022-11-24T14:31:27.398Z,86.58
2022-11-24T14:32:30.643Z,87.08
2022-11-24T14:33:33.569Z,87.56
2022-11-24T14:34:36.534Z,88.06
2022-11-24T14:35:44.920Z,88.27